Terminal Aerodrome Forecast
Issued by NWS Twin Cities, MN

Home | Current Version | Previous Version | Graphics & Text | Print | Product List | Glossary On
Versions: 1 2 3 4 5 6 7 8 9 10 11 12 13 14 15 16 17 18 19 20 21 22 23
181
FTUS43 KMPX 190901 AAB
TAFEAU
TAF AMD
KEAU 190901Z 1909/2006 16003KT 1/4SM FZFG BKN002
     FM191300 16006KT 2SM BR FEW005
     FM191600 17008KT 3SM BR OVC006
     FM192100 16003KT 5SM BR SCT007 OVC040
     FM200200 13003KT 2SM BR OVC007=

USA.gov is the U.S. government's official web portal to all federal, state and local government web resources and services.